Flight Track Log - Related Links

Times and Time Zones

All times are in EDT time to prevent confusion due to time zone crossing. See the EJA831 flight status page for this flight to view local times or setup timezone preferences in your user account.

Time Position Orientation Groundspeed Altitude Reporting Facility
EDT Latitude Longitude Course Direction KTS MPH feet Rate Location/Type
Sun 10:51:34 AM 35.1525 -101.7247 176° South 199 229 7,500  Level Fort Worth Center
Sun 10:52:36 AM 35.0672 -101.7175 176° South 244 281 10,100 2,323 Climbing Fort Worth Center
Sun 10:53:38 AM 34.9856 -101.7097 176° South 287 330 12,300 2,129 Climbing Fort Worth Center
Sun 10:53:38 AM 34.9856 -101.7097 176° South 278 320 12,300 2,300 Level Albuquerque Center
Sun 10:54:38 AM 34.8986 -101.7022 176° South 302 348 14,600 2,226 Climbing Albuquerque Center
Sun 10:55:42 AM 34.8111 -101.6933 175° South 314 361 16,900 2,048 Climbing Albuquerque Center
Sun 10:56:44 AM 34.7253 -101.6869 176° South 312 359 18,900 1,790 Climbing Albuquerque Center
Sun 10:57:46 AM 34.6369 -101.6781 175° South 314 361 20,600 1,525 Climbing Albuquerque Center
Sun 10:58:46 AM 34.5458 -101.6703 176° South 325 374 22,000 1,377 Climbing Albuquerque Center
Sun 10:59:48 AM 34.4383 -101.6617 176° South 323 372 23,400 1,171 Climbing Albuquerque Center
Sun 11:00:49 AM 34.3500 -101.6542 176° South 320 368 24,400 919 Climbing Albuquerque Center
Sun 11:01:52 AM 34.2597 -101.6447 175° South 324 373 25,300 878 Climbing Albuquerque Center
Sun 11:02:52 AM 34.1642 -101.6369 176° South 340 391 26,200 1,048 Climbing Albuquerque Center
Sun 11:03:58 AM 34.0439 -101.6269 176° South 358 412 27,500 1,359 Climbing Fort Worth Center
Sun 11:05:00 AM 33.9453 -101.6175 175° South 365 420 29,100 1,452 Climbing Fort Worth Center
Sun 11:06:02 AM 33.8517 -101.6081 175° South 340 391 30,500 1,306 Climbing Fort Worth Center
Sun 11:07:04 AM 33.7525 -101.5997 176° South 332 382 31,800 1,403 Climbing Fort Worth Center
Sun 11:08:06 AM 33.6608 -101.5922 176° South 329 379 33,400 1,258 Climbing Fort Worth Center
Sun 11:09:08 AM 33.5681 -101.5839 176° South 333 383 34,400 968 Climbing Fort Worth Center
Sun 11:10:10 AM 33.4722 -101.5767 176° South 344 396 35,400 1,016 Climbing Fort Worth Center
Sun 11:11:12 AM 33.3758 -101.5683 176° South 347 399 36,500 1,113 Climbing Fort Worth Center
Sun 11:12:14 AM 33.2794 -101.5606 176° South 346 398 37,700 968 Climbing Fort Worth Center
Sun 11:13:16 AM 33.1650 -101.5492 175° South 344 396 38,500 629 Climbing Fort Worth Center
Sun 11:14:18 AM 33.0647 -101.5247 168° South 364 419 39,000 581 Climbing Fort Worth Center
Sun 11:15:20 AM 32.9633 -101.5006 169° South 370 426 39,700 629 Climbing Fort Worth Center
Sun 11:16:22 AM 32.8669 -101.4783 169° South 370 426 40,300 532 Climbing Fort Worth Center
Sun 11:17:24 AM 32.7442 -101.4511 169° South 374 430 40,800 339 Climbing Fort Worth Center
Sun 11:18:26 AM 32.6558 -101.4294 168° South 377 434 41,000 97 Climbing Fort Worth Center
Sun 11:19:28 AM 32.5239 -101.4000 169° South 393 452 41,000  Level Fort Worth Center
Sun 11:20:30 AM 32.4133 -101.3744 169° South 400 460 41,000  Level Fort Worth Center
Sun 11:21:32 AM 32.3019 -101.3494 169° South 404 465 41,000  Level Fort Worth Center
Sun 11:22:34 AM 32.1919 -101.3242 169° South 402 463 41,000  Level Fort Worth Center
Sun 11:23:37 AM 32.0867 -101.2997 169° South 392 451 41,000  Level Fort Worth Center
Sun 11:24:39 AM 31.9769 -101.2753 169° South 398 458 41,000  Level Fort Worth Center
Sun 11:25:41 AM 31.8381 -101.2408 168° South 417 480 41,000  Level Fort Worth Center
Sun 11:26:43 AM 31.7264 -101.2167 170° South 408 470 41,000  Level Fort Worth Center
Sun 11:27:45 AM 31.6161 -101.1908 169° South 403 464 41,000  Level Fort Worth Center
Sun 11:28:47 AM 31.5042 -101.1661 169° South 405 466 41,000  Level Fort Worth Center
Sun 11:29:49 AM 31.3914 -101.1406 169° South 410 472 41,000  Level Fort Worth Center
Sun 11:30:51 AM 31.2847 -101.1194 170° South 410 472 41,000  Level Fort Worth Center
Sun 11:31:53 AM 31.1497 -101.0894 169° South 411 473 41,000  Level Fort Worth Center
Sun 11:32:55 AM 31.0372 -101.0661 170° South 412 474 41,000  Level Fort Worth Center
Sun 11:34:06 AM 30.9047 -101.0328 168° South 415 478 41,000  Level Houston Center
Sun 11:35:08 AM 30.7917 -101.0078 169° South 414 476 41,000  Level Houston Center
Sun 11:36:11 AM 30.6775 -100.9828 169° South 417 480 41,000  Level Houston Center
Sun 11:37:13 AM 30.5644 -100.9583 169° South 416 479 41,000  Level Houston Center
Sun 11:38:15 AM 30.4281 -100.9286 169° South 415 478 41,000  Level Houston Center
Sun 11:39:17 AM 30.3142 -100.9039 169° South 418 481 41,000  Level Houston Center
Sun 11:40:19 AM 30.2003 -100.8789 169° South 417 480 41,000  Level Houston Center
Sun 11:41:21 AM 30.0872 -100.8536 169° South 417 480 41,000  Level Houston Center
Sun 11:42:23 AM 29.9747 -100.8294 169° South 416 479 41,000  Level Houston Center
Sun 11:43:25 AM 29.8389 -100.8003 169° South 416 479 41,000  Level Houston Center
Sun 11:44:27 AM 29.7264 -100.7758 169° South 414 476 41,000  Level Houston Center
Sun 11:45:30 AM 29.6139 -100.7511 169° South 414 476 41,000  Level Houston Center
Sun 11:46:32 AM 29.5022 -100.7272 169° South 412 474 41,000  Level Houston Center
Sun 11:47:34 AM 29.3900 -100.7019 169° South 412 474 41,000  Level Houston Center
Sun 11:48:36 AM 29.2550 -100.6739 170° South 413 475 41,000  Level Houston Center
Sun 11:49:38 AM 29.1431 -100.6500 169° South 409 471 41,000  Level Houston Center
Sun 11:50:40 AM 29.0300 -100.6242 169° South 413 475 41,000  Level Houston Center
Sun 11:51:42 AM 28.9167 -100.6014 170° South 415 478 41,000  Level Houston Center
Sun 11:52:44 AM 28.8036 -100.5758 169° South 413 475 41,000  Level Houston Center
Sun 11:53:47 AM 28.6686 -100.5478 170° South 411 473 41,000  Level Houston Center
Sun 11:55:00 AM 28.5215 -100.5455 186° South  Level FlightAware Approximate
Sun 12:02:00 PM 27.6698 -100.6533 186° South  Level FlightAware Approximate
Sun 12:03:00 PM 27.5481 -100.6686 186° South  Level FlightAware Approximate
Sun 12:04:00 PM 27.4264 -100.6839 186° South  Level FlightAware Approximate
Sun 12:05:00 PM 27.3047 -100.6991 186° South  Level FlightAware Approximate
Sun 12:06:00 PM 27.1830 -100.7142 186° South  Level FlightAware Approximate
Sun 12:07:00 PM 27.0613 -100.7294 186° South  Level FlightAware Approximate
Sun 12:08:00 PM 26.9396 -100.7445 186° South  Level FlightAware Approximate
Sun 12:09:00 PM 26.8179 -100.7595 186° South  Level FlightAware Approximate
Sun 12:10:00 PM 26.6962 -100.7746 186° South  Level FlightAware Approximate
Sun 12:11:00 PM 26.5745 -100.7896 186° South  Level FlightAware Approximate
Sun 12:12:00 PM 26.4528 -100.8046 186° South  Level FlightAware Approximate
Sun 12:13:00 PM 26.3311 -100.8195 186° South  Level FlightAware Approximate
Sun 12:14:00 PM 26.2093 -100.8344 186° South  Level FlightAware Approximate
Sun 12:15:00 PM 26.0876 -100.8493 186° South  Level FlightAware Approximate
Sun 12:16:00 PM 25.9659 -100.8641 186° South  Level FlightAware Approximate
Sun 12:17:00 PM 25.8442 -100.8790 186° South  Level FlightAware Approximate
Sun 12:18:00 PM 25.7225 -100.8937 186° South  Level FlightAware Approximate
Sun 12:19:00 PM 25.6008 -100.9085 186° South  Level FlightAware Approximate
Sun 12:20:00 PM 25.4791 -100.9236 187° South  Level FlightAware Approximate
Sun 12:21:00 PM 25.3575 -100.9392 187° South  Level FlightAware Approximate
Sun 12:22:00 PM 25.2358 -100.9547 187° South  Level FlightAware Approximate
Sun 12:23:00 PM 25.1142 -100.9702 187° South  Level FlightAware Approximate
Sun 12:24:00 PM 24.9925 -100.9856 187° South  Level FlightAware Approximate
Sun 12:25:00 PM 24.8709 -101.0011 187° South  Level FlightAware Approximate
Sun 12:26:00 PM 24.7493 -101.0165 187° South  Level FlightAware Approximate
Sun 12:27:00 PM 24.6276 -101.0318 187° South  Level FlightAware Approximate
Sun 12:28:00 PM 24.5060 -101.0472 187° South  Level FlightAware Approximate
Sun 12:29:00 PM 24.3843 -101.0625 187° South  Level FlightAware Approximate
Sun 12:30:00 PM 24.2627 -101.0778 187° South  Level FlightAware Approximate
Sun 12:31:00 PM 24.1410 -101.0930 187° South  Level FlightAware Approximate
Sun 12:32:00 PM 24.0194 -101.1082 187° South  Level FlightAware Approximate
Sun 12:33:00 PM 23.8977 -101.1234 187° South  Level FlightAware Approximate
Sun 12:34:00 PM 23.7761 -101.1386 187° South  Level FlightAware Approximate
Sun 12:35:00 PM 23.6544 -101.1537 186° South  Level FlightAware Approximate
Sun 12:36:00 PM 23.5327 -101.1667 180° South  Level FlightAware Approximate
Sun 12:37:00 PM 23.4138 -101.1891 184° South  Level FlightAware Approximate
Sun 12:38:00 PM 23.2917 -101.1993 184° South  Level FlightAware Approximate
Sun 12:39:00 PM 23.1696 -101.2095 184° South  Level FlightAware Approximate
Sun 12:40:00 PM 23.0478 -101.2223 188° South  Level FlightAware Approximate
Sun 12:41:00 PM 22.9266 -101.2414 188° South  Level FlightAware Approximate
Sun 12:42:00 PM 22.8054 -101.2606 188° South  Level FlightAware Approximate
Sun 12:43:00 PM 22.6837 -101.2711 187° South  Level FlightAware Approximate
Sun 12:44:00 PM 22.5621 -101.2873 187° South  Level FlightAware Approximate
Sun 12:45:00 PM 22.4406 -101.3035 187° South  Level FlightAware Approximate
Sun 12:46:00 PM 22.3191 -101.3197 187° South  Level FlightAware Approximate
Sun 12:47:00 PM 22.1975 -101.3355 186° South  Level FlightAware Approximate
Sun 12:48:00 PM 22.0758 -101.3496 186° South  Level FlightAware Approximate
Sun 12:49:00 PM 21.9540 -101.3637 186° South  Level FlightAware Approximate
Sun 12:50:00 PM 21.8323 -101.3777 186° South  Level FlightAware Approximate
Sun 12:51:00 PM 21.7110 -101.3954 189° South  Level FlightAware Approximate
Sun 12:52:00 PM 21.5892 -101.4042 188° South  Level FlightAware Approximate
Sun 12:53:00 PM 21.4680 -101.4229 188° South  Level FlightAware Approximate
Sun 12:54:00 PM 21.3464 -101.4387 185° South  Level FlightAware Approximate
Sun 12:55:00 PM 21.2245 -101.4500 180° South  Level FlightAware Approximate
Sun 12:56:00 PM 21.1028 -101.4594 191° South  Level FlightAware Approximate
Sun 12:57:00 PM 20.9935 -101.4809 North  Level Estimated
Sun 12:58:00 PM 20.9935 -101.4809 North  Level Estimated
Sun 12:59:00 PM 20.9935 -101.4809 North  Level Estimated
Sun 01:00:00 PM 20.9935 -101.4809 North  Level Estimated
Sun 01:01:00 PM 20.9935 -101.4809 North  Level Estimated
Sun 01:02:00 PM 20.9935 -101.4809 North  Level Estimated
Sun 01:03:00 PM 20.9935 -101.4809 North  Level Estimated
Sun 01:04:00 PM 20.9935 -101.4809 North  Level Estimated
Sun 01:05:00 PM 20.9935 -101.4809 North  Level Estimated
Sun 01:06:00 PM 20.9935 -101.4809 North  Level Estimated
Sun 01:07:00 PM 20.9935 -101.4809 North  Level Estimated
Sun 01:08:00 PM 20.9935 -101.4809 North  Level Estimated
Sun 01:09:00 PM 20.9935 -101.4809 North  Level Estimated
Sun 01:10:00 PM 20.9935 -101.4809 North  Level Estimated
Sun 01:11:00 PM 20.9935 -101.4809 North  Level Estimated
Sun 01:12:00 PM 20.9935 -101.4809 North  Level Estimated
Sun 01:13:00 PM 20.9935 -101.4809 North  Level Estimated
Sun 01:14:00 PM 20.9935 -101.4809 North  Level Estimated
Sun 01:15:00 PM 20.9935 -101.4809 North  Level Estimated
Sun 01:16:00 PM 20.9935 -101.4809 North  Level Estimated
Sun 01:17:00 PM 20.9935 -101.4809 North  Level Estimated
Sun 01:18:00 PM 20.9935 -101.4809 North  Level Estimated
Sun 01:19:00 PM 20.9935 -101.4809 North  Level Estimated
Sun 01:20:00 PM 20.9935 -101.4809 North  Level Estimated
Sun 01:21:00 PM 20.9935 -101.4809 North  Level Estimated
Sun 01:22:00 PM 20.9935 -101.4809 North  Level Estimated
Sun 01:23:00 PM 20.9935 -101.4809 North  Level Estimated
Sun 01:24:00 PM 20.9935 -101.4809 North  Level Estimated
Sun 01:25:00 PM 20.9935 -101.4809 North  Level Estimated

Login

Don't have an account? Register now (free) for customized features, flight alerts, and more!